createdAt,value
2023-05-12T00:01:49.447Z,100166.50
2023-05-12T00:04:16.254Z,100172.75
2023-05-12T00:06:42.881Z,100178.59
2023-05-12T00:09:09.945Z,100169.91
2023-05-12T00:11:37.614Z,100165.34
2023-05-12T00:14:04.307Z,100177.16
2023-05-12T00:16:31.322Z,100178.44
2023-05-12T00:18:57.930Z,100163.63
2023-05-12T00:21:24.630Z,100175.44
2023-05-12T00:23:51.298Z,100165.81
2023-05-12T00:26:18.051Z,100170.19
2023-05-12T00:28:44.736Z,100173.38
2023-05-12T00:31:11.405Z,100177.13
2023-05-12T00:33:38.047Z,100178.84
2023-05-12T00:36:04.873Z,100163.41
2023-05-12T00:38:31.519Z,100169.34
2023-05-12T00:40:58.134Z,100167.38
2023-05-12T00:43:24.763Z,100164.34
2023-05-12T00:45:51.661Z,100166.81
2023-05-12T00:48:18.649Z,100166.84
2023-05-12T00:50:45.276Z,100167.53
2023-05-12T00:53:13.123Z,100161.38
2023-05-12T00:55:39.778Z,100157.97
2023-05-12T00:58:06.557Z,100165.34
2023-05-12T01:00:33.188Z,100169.00
2023-05-12T01:03:00.079Z,100164.25
2023-05-12T01:05:30.445Z,100163.19
2023-05-12T01:07:59.994Z,100163.69
2023-05-12T01:10:26.634Z,100171.78
2023-05-12T01:12:53.394Z,100165.16
2023-05-12T01:15:20.072Z,100165.69
2023-05-12T01:17:54.555Z,100160.50
2023-05-12T01:20:23.124Z,100163.22
2023-05-12T01:22:49.954Z,100161.88
2023-05-12T01:25:17.468Z,100164.75
2023-05-12T01:27:45.006Z,100159.97
2023-05-12T01:30:13.458Z,100162.84
2023-05-12T01:32:40.701Z,100159.25
2023-05-12T01:35:07.575Z,100157.88
2023-05-12T01:37:34.212Z,100157.19
2023-05-12T01:40:01.024Z,100157.41
2023-05-12T01:42:28.084Z,100160.75
2023-05-12T01:44:54.720Z,100161.59
2023-05-12T01:47:21.833Z,100161.38
2023-05-12T01:49:48.630Z,100163.56
2023-05-12T01:52:15.462Z,100157.47
2023-05-12T01:54:42.099Z,100164.69
2023-05-12T01:57:08.718Z,100160.06
2023-05-12T01:59:36.308Z,100166.19
2023-05-12T02:02:03.221Z,100163.09
2023-05-12T02:04:29.891Z,100151.84
2023-05-12T02:06:56.514Z,100163.59
2023-05-12T02:09:23.195Z,100155.81
2023-05-12T02:11:49.905Z,100150.47
2023-05-12T02:14:16.559Z,100151.88
2023-05-12T02:16:43.304Z,100154.25
2023-05-12T02:19:10.167Z,100158.31
2023-05-12T02:21:36.860Z,100153.59
2023-05-12T02:24:03.581Z,100153.53
2023-05-12T02:26:30.206Z,100153.22
2023-05-12T02:28:56.914Z,100161.09
2023-05-12T02:31:23.617Z,100161.12
2023-05-12T02:33:51.734Z,100157.09
2023-05-12T02:36:18.433Z,100157.06
2023-05-12T02:38:45.055Z,100151.25
2023-05-12T02:41:12.407Z,100162.16
2023-05-12T02:43:39.375Z,100154.44
2023-05-12T02:46:06.195Z,100155.84
2023-05-12T02:48:32.924Z,100146.38
2023-05-12T02:50:59.520Z,100154.63
2023-05-12T02:53:27.229Z,100149.94
2023-05-12T02:55:53.964Z,100147.91
2023-05-12T02:58:20.711Z,100152.72
2023-05-12T03:00:50.185Z,100146.38
2023-05-12T03:03:20.965Z,100150.59
2023-05-12T03:05:48.909Z,100150.97
2023-05-12T03:08:15.545Z,100158.81
2023-05-12T03:10:43.725Z,100153.00
2023-05-12T03:13:10.396Z,100154.12
2023-05-12T03:15:37.048Z,100155.50
2023-05-12T03:18:03.725Z,100151.34
2023-05-12T03:20:30.670Z,100158.78
2023-05-12T03:22:57.407Z,100154.25
2023-05-12T03:25:24.092Z,100148.47
2023-05-12T03:27:51.011Z,100153.44
2023-05-12T03:30:17.864Z,100161.06
2023-05-12T03:32:46.371Z,100154.12
2023-05-12T03:35:13.157Z,100152.13
2023-05-12T03:37:39.835Z,100151.44
2023-05-12T03:40:06.717Z,100146.34
2023-05-12T03:42:33.391Z,100150.19
2023-05-12T03:45:00.010Z,100153.84
2023-05-12T03:47:28.528Z,100154.84
2023-05-12T03:49:55.883Z,100151.09
2023-05-12T03:52:22.572Z,100154.59
2023-05-12T03:54:49.200Z,100160.50
2023-05-12T03:57:15.965Z,100161.88
2023-05-12T03:59:42.719Z,100156.88
2023-05-12T04:02:11.970Z,100169.34
2023-05-12T04:04:38.848Z,100165.66
2023-05-12T04:07:05.610Z,100168.91
2023-05-12T04:09:33.242Z,100163.69
2023-05-12T04:12:00.401Z,100168.16
2023-05-12T04:14:39.124Z,100161.34
2023-05-12T04:17:09.362Z,100171.50
2023-05-12T04:19:36.015Z,100166.59
2023-05-12T04:22:02.663Z,100170.56
2023-05-12T04:24:29.372Z,100172.69
2023-05-12T04:26:57.359Z,100167.28
2023-05-12T04:29:23.999Z,100165.16
2023-05-12T04:31:50.690Z,100177.53
2023-05-12T04:34:17.360Z,100168.81
2023-05-12T04:36:44.007Z,100176.59
2023-05-12T04:39:10.643Z,100173.66
2023-05-12T04:41:37.256Z,100180.84
2023-05-12T04:44:03.986Z,100182.47
2023-05-12T04:46:30.747Z,100180.19
2023-05-12T04:48:57.521Z,100176.72
2023-05-12T04:51:24.300Z,100179.22
2023-05-12T04:53:51.070Z,100181.72
2023-05-12T04:56:17.845Z,100176.41
2023-05-12T04:58:44.559Z,100180.81
2023-05-12T05:01:12.584Z,100178.16
2023-05-12T05:03:39.956Z,100189.81
2023-05-12T05:06:06.939Z,100185.63
2023-05-12T05:08:33.671Z,100180.47
2023-05-12T05:11:00.342Z,100186.25
2023-05-12T05:13:26.997Z,100182.66
2023-05-12T05:15:55.261Z,100188.72
2023-05-12T05:18:24.006Z,100190.63
2023-05-12T05:20:57.759Z,100193.94
2023-05-12T05:23:26.163Z,100191.78
2023-05-12T05:25:52.974Z,100201.22
2023-05-12T05:28:19.593Z,100198.47
2023-05-12T05:30:46.224Z,100216.19
2023-05-12T05:33:13.423Z,100211.31
2023-05-12T05:35:40.376Z,100218.66
2023-05-12T05:38:07.094Z,100213.25
2023-05-12T05:40:41.548Z,100230.19
2023-05-12T05:43:12.143Z,100225.72
2023-05-12T05:45:38.837Z,100223.13
2023-05-12T05:48:05.656Z,100225.31
2023-05-12T05:50:32.606Z,100229.94
2023-05-12T05:52:59.291Z,100231.91
2023-05-12T05:55:26.202Z,100238.00
2023-05-12T05:57:52.832Z,100242.03
2023-05-12T06:00:19.727Z,100229.78
2023-05-12T06:02:46.829Z,100238.00
2023-05-12T06:05:14.394Z,100236.53
2023-05-12T06:07:41.417Z,100232.44
2023-05-12T06:10:08.368Z,100237.75
2023-05-12T06:12:35.123Z,100237.72
2023-05-12T06:15:02.013Z,100244.56
2023-05-12T06:17:30.257Z,100255.50
2023-05-12T06:19:57.950Z,100252.59
2023-05-12T06:22:25.284Z,100243.09
2023-05-12T06:24:52.598Z,100254.84
2023-05-12T06:27:19.362Z,100252.09
2023-05-12T06:29:46.131Z,100245.44
2023-05-12T06:32:12.771Z,100248.31
2023-05-12T06:34:39.546Z,100257.91
2023-05-12T06:37:06.815Z,100252.56
2023-05-12T06:39:33.471Z,100254.81
2023-05-12T06:42:00.263Z,100258.66
2023-05-12T06:44:27.025Z,100249.94
2023-05-12T06:46:53.846Z,100257.00
2023-05-12T06:49:20.680Z,100263.06
2023-05-12T06:51:47.397Z,100253.28
2023-05-12T06:54:14.295Z,100267.94
2023-05-12T06:56:41.080Z,100263.25
2023-05-12T06:59:07.885Z,100265.00
2023-05-12T07:01:34.722Z,100267.22
2023-05-12T07:04:01.464Z,100272.62
2023-05-12T07:06:28.213Z,100273.38
2023-05-12T07:08:57.345Z,100274.59
2023-05-12T07:11:24.075Z,100278.59
2023-05-12T07:13:51.593Z,100274.28
2023-05-12T07:16:18.973Z,100272.62
2023-05-12T07:18:46.236Z,100269.22
2023-05-12T07:21:13.500Z,100275.19
2023-05-12T07:23:40.757Z,100265.34
2023-05-12T07:26:07.848Z,100269.59
2023-05-12T07:28:38.337Z,100267.72
2023-05-12T07:31:05.975Z,100277.66
2023-05-12T07:33:33.348Z,100268.63
2023-05-12T07:36:00.153Z,100270.63
2023-05-12T07:38:26.916Z,100268.19
2023-05-12T07:40:53.641Z,100282.31
2023-05-12T07:43:21.136Z,100272.16
2023-05-12T07:45:47.802Z,100271.44
2023-05-12T07:48:14.583Z,100272.41
2023-05-12T07:50:41.384Z,100283.94
2023-05-12T07:53:08.192Z,100281.47
2023-05-12T07:55:35.819Z,100288.22
2023-05-12T07:58:02.698Z,100292.69
2023-05-12T08:00:29.742Z,100288.09
2023-05-12T08:02:56.742Z,100291.06
2023-05-12T08:05:23.635Z,100288.22
2023-05-12T08:07:50.974Z,100293.19
2023-05-12T08:10:18.823Z,100295.84
2023-05-12T08:12:45.673Z,100294.87
2023-05-12T08:15:12.678Z,100292.72
2023-05-12T08:17:39.555Z,100298.13
2023-05-12T08:20:06.908Z,100299.53
2023-05-12T08:22:33.856Z,100303.12
2023-05-12T08:25:00.621Z,100309.84
2023-05-12T08:27:27.417Z,100299.72
2023-05-12T08:29:54.157Z,100310.25
2023-05-12T08:32:20.967Z,100301.09
2023-05-12T08:34:47.699Z,100304.13
2023-05-12T08:37:14.593Z,100306.03
2023-05-12T08:39:41.402Z,100311.47
2023-05-12T08:42:14.399Z,100313.72
2023-05-12T08:44:41.217Z,100307.63
2023-05-12T08:47:08.904Z,100326.25
2023-05-12T08:49:36.518Z,100317.09
2023-05-12T08:52:03.530Z,100324.06
2023-05-12T08:54:30.672Z,100327.72
2023-05-12T08:59:27.182Z,100328.91
2023-05-12T09:01:54.919Z,100325.78
2023-05-12T09:04:21.666Z,100332.94
2023-05-12T09:06:49.099Z,100328.56
2023-05-12T09:09:16.891Z,100335.69
2023-05-12T09:11:44.187Z,100349.22
2023-05-12T09:14:19.271Z,100330.22
2023-05-12T09:16:49.272Z,100344.41
2023-05-12T09:19:19.506Z,100333.62
2023-05-12T09:21:46.400Z,100339.47
2023-05-12T09:24:13.125Z,100347.28
2023-05-12T09:26:50.040Z,100345.19
2023-05-12T09:29:27.680Z,100350.75
2023-05-12T09:31:58.841Z,100354.47
2023-05-12T09:34:30.721Z,100349.88
2023-05-12T09:37:02.178Z,100346.88
2023-05-12T09:39:29.213Z,100360.31
2023-05-12T09:41:56.245Z,100350.78
2023-05-12T09:44:23.714Z,100342.47
2023-05-12T09:46:51.557Z,100346.94
2023-05-12T09:49:21.953Z,100355.09
2023-05-12T09:51:52.251Z,100349.41
2023-05-12T09:54:28.591Z,100344.28
2023-05-12T09:56:58.327Z,100350.50
2023-05-12T09:59:27.252Z,100353.34
2023-05-12T10:01:55.880Z,100343.34
2023-05-12T10:04:22.871Z,100352.34
2023-05-12T10:06:49.990Z,100355.72
2023-05-12T10:09:20.888Z,100346.13
2023-05-12T10:11:47.772Z,100346.03
2023-05-12T10:14:15.761Z,100343.38
2023-05-12T10:16:44.110Z,100355.66
2023-05-12T10:19:11.525Z,100349.41
2023-05-12T10:21:38.497Z,100349.28
2023-05-12T10:24:05.464Z,100352.56
2023-05-12T10:26:37.731Z,100348.84
2023-05-12T10:29:04.465Z,100348.03
2023-05-12T10:31:31.361Z,100337.56
2023-05-12T10:33:59.030Z,100347.56
2023-05-12T10:36:25.827Z,100341.63
2023-05-12T10:38:52.781Z,100340.25
2023-05-12T10:41:35.256Z,100344.19
2023-05-12T10:44:01.950Z,100339.84
2023-05-12T10:46:28.809Z,100347.00
2023-05-12T10:49:00.024Z,100343.34
2023-05-12T10:51:28.663Z,100342.19
2023-05-12T10:54:02.649Z,100345.34
2023-05-12T10:56:38.763Z,100354.19
2023-05-12T10:59:06.888Z,100337.06
2023-05-12T11:01:34.768Z,100346.06
2023-05-12T11:04:11.514Z,100349.03
2023-05-12T11:06:40.697Z,100340.84
2023-05-12T11:09:08.962Z,100346.59
2023-05-12T11:11:36.361Z,100345.22
2023-05-12T11:14:03.253Z,100350.72
2023-05-12T11:16:30.177Z,100349.00
2023-05-12T11:19:03.780Z,100348.22
2023-05-12T11:21:32.261Z,100343.00
2023-05-12T11:24:00.448Z,100346.66
2023-05-12T11:26:27.709Z,100346.66
2023-05-12T11:28:54.900Z,100349.91
2023-05-12T11:31:22.456Z,100342.84
2023-05-12T11:33:58.500Z,100352.19
2023-05-12T11:36:42.414Z,100366.13
2023-05-12T11:39:19.013Z,100355.28
2023-05-12T11:41:46.115Z,100364.81
2023-05-12T11:44:17.048Z,100361.75
2023-05-12T11:47:00.724Z,100352.94
2023-05-12T11:49:29.419Z,100353.66
2023-05-12T11:51:59.261Z,100351.41
2023-05-12T11:54:28.035Z,100356.25
2023-05-12T11:56:55.470Z,100355.37
2023-05-12T11:59:32.905Z,100357.31
2023-05-12T12:02:00.877Z,100370.75
2023-05-12T12:04:34.873Z,100362.31
2023-05-12T12:07:01.897Z,100363.91
2023-05-12T12:09:32.620Z,100365.94
2023-05-12T12:12:00.131Z,100363.75
2023-05-12T12:14:26.872Z,100366.63
2023-05-12T12:16:53.672Z,100371.56
2023-05-12T12:19:20.472Z,100357.16
2023-05-12T12:21:47.223Z,100370.69
2023-05-12T12:24:14.042Z,100362.59
2023-05-12T12:26:40.749Z,100366.63
2023-05-12T12:29:07.474Z,100366.56
2023-05-12T12:31:34.733Z,100363.28
2023-05-12T12:34:01.450Z,100372.00
2023-05-12T12:36:28.176Z,100386.34
2023-05-12T12:38:54.848Z,100375.56
2023-05-12T12:41:22.111Z,100376.78
2023-05-12T12:43:48.839Z,100382.31
2023-05-12T12:46:15.608Z,100372.91
2023-05-12T12:48:42.654Z,100381.44
2023-05-12T12:51:09.992Z,100377.41
2023-05-12T12:53:37.694Z,100367.84
2023-05-12T12:56:05.040Z,100375.38
2023-05-12T12:58:31.879Z,100378.28
2023-05-12T13:00:58.637Z,100382.19
2023-05-12T13:03:25.422Z,100381.78
2023-05-12T13:05:52.619Z,100391.88
2023-05-12T13:08:19.380Z,100387.81
2023-05-12T13:10:46.209Z,100375.97
2023-05-12T13:13:13.084Z,100387.19
2023-05-12T13:15:40.146Z,100378.47
2023-05-12T13:18:07.007Z,100371.25
2023-05-12T13:20:34.096Z,100372.87
2023-05-12T13:23:00.900Z,100379.16
2023-05-12T13:25:27.700Z,100378.66
2023-05-12T13:27:54.353Z,100378.66
2023-05-12T13:30:22.808Z,100386.00
2023-05-12T13:32:50.243Z,100389.97
2023-05-12T13:35:17.052Z,100387.34
2023-05-12T13:37:43.751Z,100389.59
2023-05-12T13:40:10.715Z,100385.28
2023-05-12T13:42:37.538Z,100392.41
2023-05-12T13:45:04.627Z,100402.53
2023-05-12T13:47:31.365Z,100412.78
2023-05-12T13:49:58.134Z,100409.09
2023-05-12T13:52:24.782Z,100411.69
2023-05-12T13:54:51.689Z,100413.03
2023-05-12T13:57:18.408Z,100408.16
2023-05-12T13:59:45.189Z,100416.41
2023-05-12T14:02:14.006Z,100408.91
2023-05-12T14:04:40.724Z,100410.59
2023-05-12T14:07:08.805Z,100409.19
2023-05-12T14:09:35.724Z,100411.78
2023-05-12T14:12:02.680Z,100413.47
2023-05-12T14:14:29.391Z,100413.59
2023-05-12T14:16:56.137Z,100405.78
2023-05-12T14:19:22.794Z,100399.25
2023-05-12T14:21:49.705Z,100401.19
2023-05-12T14:24:16.448Z,100397.97
2023-05-12T14:26:43.130Z,100405.50
2023-05-12T14:29:09.899Z,100394.44
2023-05-12T14:31:36.626Z,100390.50
2023-05-12T14:34:04.148Z,100401.75
2023-05-12T14:36:31.018Z,100389.16
2023-05-12T14:38:57.669Z,100394.66
2023-05-12T14:41:24.576Z,100385.00
2023-05-12T14:43:51.243Z,100389.09
2023-05-12T14:46:17.979Z,100391.66
2023-05-12T14:48:44.872Z,100394.97
2023-05-12T14:51:11.560Z,100381.25
2023-05-12T14:53:38.313Z,100380.16
2023-05-12T14:56:05.229Z,100385.97
2023-05-12T14:58:31.897Z,100388.88
2023-05-12T15:00:59.540Z,100396.97
2023-05-12T15:03:26.287Z,100386.88
2023-05-12T15:06:06.017Z,100396.37
2023-05-12T15:08:33.394Z,100400.75
2023-05-12T15:11:00.164Z,100399.94
2023-05-12T15:13:26.816Z,100401.47
2023-05-12T15:15:55.287Z,100403.84
2023-05-12T15:18:23.389Z,100413.00
2023-05-12T15:20:50.194Z,100403.09
2023-05-12T15:23:16.839Z,100410.19
2023-05-12T15:25:43.564Z,100416.19
2023-05-12T15:28:10.229Z,100414.94
2023-05-12T15:30:37.245Z,100410.06
2023-05-12T15:33:04.419Z,100420.94
2023-05-12T15:35:31.164Z,100425.00
2023-05-12T15:37:57.803Z,100425.78
2023-05-12T15:40:24.671Z,100418.78
2023-05-12T15:42:51.348Z,100417.31
2023-05-12T15:45:18.061Z,100419.41
2023-05-12T15:47:44.797Z,100420.13
2023-05-12T15:50:11.616Z,100421.03
2023-05-12T15:52:38.347Z,100414.84
2023-05-12T15:55:05.238Z,100427.13
2023-05-12T15:57:31.891Z,100427.59
2023-05-12T15:59:59.440Z,100420.81
2023-05-12T16:02:26.420Z,100417.03
2023-05-12T16:04:53.140Z,100417.09
2023-05-12T16:07:19.950Z,100420.28
2023-05-12T16:09:46.887Z,100425.22
2023-05-12T16:12:14.543Z,100425.28
2023-05-12T16:14:41.204Z,100436.91
2023-05-12T16:17:08.004Z,100425.66
2023-05-12T16:19:34.668Z,100422.94
2023-05-12T16:22:01.393Z,100424.41
2023-05-12T16:24:28.951Z,100426.03
2023-05-12T16:26:56.044Z,100422.69
2023-05-12T16:29:22.719Z,100436.41
2023-05-12T16:31:49.422Z,100433.00
2023-05-12T16:34:16.077Z,100432.59
2023-05-12T16:36:42.843Z,100424.66
2023-05-12T16:39:09.549Z,100428.88
2023-05-12T16:41:36.242Z,100427.37
2023-05-12T16:44:03.192Z,100439.03
2023-05-12T16:46:30.052Z,100438.94
2023-05-12T16:48:56.732Z,100429.91
2023-05-12T16:51:24.555Z,100435.16
2023-05-12T16:53:51.660Z,100436.09
2023-05-12T16:56:18.312Z,100443.22
2023-05-12T16:58:45.083Z,100435.62
2023-05-12T17:01:11.892Z,100444.88
2023-05-12T17:03:39.464Z,100435.00
2023-05-12T17:06:06.317Z,100424.97
2023-05-12T17:08:35.942Z,100431.44
2023-05-12T17:11:03.040Z,100434.16
2023-05-12T17:13:30.666Z,100439.31
2023-05-12T17:15:57.780Z,100446.41
2023-05-12T17:18:25.079Z,100446.25
2023-05-12T17:20:51.779Z,100449.91
2023-05-12T17:23:18.418Z,100443.87
2023-05-12T17:25:45.062Z,100453.69
2023-05-12T17:28:11.702Z,100450.31
2023-05-12T17:30:38.357Z,100467.91
2023-05-12T17:33:05.123Z,100445.41
2023-05-12T17:35:32.783Z,100452.22
2023-05-12T17:37:59.448Z,100451.75
2023-05-12T17:40:26.622Z,100463.47
2023-05-12T17:42:53.503Z,100460.66
2023-05-12T17:45:20.570Z,100464.09
2023-05-12T17:47:48.766Z,100464.25
2023-05-12T17:50:16.421Z,100462.47
2023-05-12T17:52:43.632Z,100465.19
2023-05-12T17:55:10.535Z,100463.03
2023-05-12T17:57:37.206Z,100467.50
2023-05-12T18:00:09.852Z,100453.41
2023-05-12T18:02:37.440Z,100460.50
2023-05-12T18:05:05.481Z,100467.69
2023-05-12T18:07:32.325Z,100471.41
2023-05-12T18:09:59.002Z,100475.09
2023-05-12T18:12:25.644Z,100471.06
2023-05-12T18:14:52.333Z,100475.03
2023-05-12T18:17:19.795Z,100475.47
2023-05-12T18:19:46.558Z,100487.16
2023-05-12T18:22:15.602Z,100480.87
2023-05-12T18:24:42.284Z,100479.78
2023-05-12T18:27:08.959Z,100492.28
2023-05-12T18:29:35.655Z,100499.97
2023-05-12T18:32:02.380Z,100502.75
2023-05-12T18:34:29.879Z,100507.63
2023-05-12T18:36:59.386Z,100508.53
2023-05-12T18:39:26.301Z,100511.09
2023-05-12T18:41:53.863Z,100518.19
2023-05-12T18:44:20.607Z,100520.84
2023-05-12T18:46:47.772Z,100508.69
2023-05-12T18:49:14.523Z,100534.38
2023-05-12T18:51:41.212Z,100521.06
2023-05-12T18:54:07.872Z,100524.56
2023-05-12T18:56:34.514Z,100532.94
2023-05-12T18:59:01.256Z,100528.91
2023-05-12T19:01:28.074Z,100521.22
2023-05-12T19:03:55.091Z,100531.91
2023-05-12T19:06:21.787Z,100526.22
2023-05-12T19:08:48.426Z,100536.53
2023-05-12T19:11:15.140Z,100528.13
2023-05-12T19:13:45.286Z,100526.50
2023-05-12T19:16:12.200Z,100530.12
2023-05-12T19:18:58.994Z,100536.34
2023-05-12T19:21:31.053Z,100537.12
2023-05-12T19:23:57.886Z,100560.56
2023-05-12T19:26:24.630Z,100551.50
2023-05-12T19:28:51.285Z,100556.91
2023-05-12T19:31:17.953Z,100556.44
2023-05-12T19:33:44.646Z,100550.94
2023-05-12T19:36:11.797Z,100558.06
2023-05-12T19:38:40.176Z,100566.37
2023-05-12T19:41:06.946Z,100567.25
2023-05-12T19:43:33.595Z,100554.12
2023-05-12T19:46:00.391Z,100566.88
2023-05-12T19:48:27.136Z,100576.88
2023-05-12T19:50:54.453Z,100566.19
2023-05-12T19:53:23.281Z,100578.59
2023-05-12T19:55:50.006Z,100578.63
2023-05-12T19:58:16.643Z,100578.47
2023-05-12T20:00:43.330Z,100574.53
2023-05-12T20:03:10.263Z,100580.97
2023-05-12T20:05:37.813Z,100584.47
2023-05-12T20:08:04.757Z,100585.47
2023-05-12T20:10:31.562Z,100591.44
2023-05-12T20:12:58.296Z,100592.28
2023-05-12T20:15:24.958Z,100590.41
2023-05-12T20:17:51.681Z,100585.22
2023-05-12T20:20:18.405Z,100589.87
2023-05-12T20:22:45.027Z,100588.75
2023-05-12T20:25:16.098Z,100597.66
2023-05-12T20:27:43.279Z,100594.97
2023-05-12T20:30:10.785Z,100589.75
2023-05-12T20:32:41.863Z,100604.38
2023-05-12T20:35:09.265Z,100592.66
2023-05-12T20:37:36.041Z,100602.09
2023-05-12T20:40:07.420Z,100607.38
2023-05-12T20:42:34.181Z,100610.81
2023-05-12T20:45:01.326Z,100601.59
2023-05-12T20:47:28.035Z,100607.00
2023-05-12T20:49:55.223Z,100617.63
2023-05-12T20:52:22.220Z,100616.94
2023-05-12T20:54:49.085Z,100616.78
2023-05-12T20:57:15.801Z,100622.88
2023-05-12T20:59:42.422Z,100611.56
2023-05-12T21:02:10.971Z,100611.62
2023-05-12T21:04:37.655Z,100604.66
2023-05-12T21:07:04.666Z,100610.59
2023-05-12T21:09:31.370Z,100615.12
2023-05-12T21:11:58.791Z,100612.53
2023-05-12T21:14:25.436Z,100607.97
2023-05-12T21:16:52.148Z,100607.41
2023-05-12T21:19:18.793Z,100612.31
2023-05-12T21:21:45.433Z,100610.59
2023-05-12T21:24:12.117Z,100614.94
2023-05-12T21:26:39.287Z,100619.41
2023-05-12T21:29:06.201Z,100617.75
2023-05-12T21:31:33.084Z,100619.69
2023-05-12T21:33:59.760Z,100624.72
2023-05-12T21:36:26.436Z,100625.59
2023-05-12T21:38:53.420Z,100626.87
2023-05-12T21:41:20.092Z,100626.31
2023-05-12T21:43:46.728Z,100624.81
2023-05-12T21:46:13.470Z,100632.69
2023-05-12T21:48:40.242Z,100624.00
2023-05-12T21:51:07.065Z,100626.69
2023-05-12T21:53:33.771Z,100625.88
2023-05-12T21:56:00.435Z,100629.16
2023-05-12T21:58:28.380Z,100628.81
2023-05-12T22:00:55.003Z,100633.91
2023-05-12T22:03:22.219Z,100634.91
2023-05-12T22:05:49.102Z,100637.69
2023-05-12T22:08:16.480Z,100628.72
2023-05-12T22:10:43.428Z,100628.62
2023-05-12T22:13:10.267Z,100638.47
2023-05-12T22:15:37.054Z,100633.31
2023-05-12T22:18:03.869Z,100637.72
2023-05-12T22:20:30.537Z,100627.53
2023-05-12T22:22:57.809Z,100639.50
2023-05-12T22:25:24.454Z,100635.94
2023-05-12T22:27:51.125Z,100629.03
2023-05-12T22:30:18.924Z,100628.06
2023-05-12T22:32:45.726Z,100636.19
2023-05-12T22:35:12.501Z,100632.19
2023-05-12T22:37:39.279Z,100630.09
2023-05-12T22:40:06.358Z,100630.53
2023-05-12T22:42:33.066Z,100628.94
2023-05-12T22:45:01.009Z,100631.75
2023-05-12T22:47:28.050Z,100625.94
2023-05-12T22:49:54.720Z,100628.72
2023-05-12T22:52:21.572Z,100626.06
2023-05-12T22:54:51.468Z,100630.75
2023-05-12T22:57:18.153Z,100622.31
2023-05-12T22:59:45.012Z,100620.37
2023-05-12T23:02:11.745Z,100620.94
2023-05-12T23:04:38.395Z,100621.03
2023-05-12T23:07:06.957Z,100620.69
2023-05-12T23:09:36.604Z,100615.19
2023-05-12T23:12:03.903Z,100625.38
2023-05-12T23:14:30.555Z,100626.09
2023-05-12T23:16:57.404Z,100618.88
2023-05-12T23:19:24.163Z,100618.56
2023-05-12T23:21:51.342Z,100618.56
2023-05-12T23:24:17.980Z,100613.44
2023-05-12T23:26:44.613Z,100613.44
2023-05-12T23:29:11.387Z,100616.09
2023-05-12T23:31:38.056Z,100608.91
2023-05-12T23:34:04.781Z,100617.38
2023-05-12T23:36:32.071Z,100612.47
2023-05-12T23:38:58.723Z,100615.28
2023-05-12T23:41:26.197Z,100618.62
2023-05-12T23:43:52.835Z,100610.59
2023-05-12T23:46:19.499Z,100614.91
2023-05-12T23:48:46.164Z,100610.72
2023-05-12T23:51:12.772Z,100606.50
2023-05-12T23:53:39.426Z,100609.56
2023-05-12T23:56:06.354Z,100611.28
2023-05-12T23:58:32.973Z,100609.56
